Time;durP1;ratioP1;P1;durP2;ratioP2;P2;SDS_P1;SDS_P2;PMS_P1;PMS_P2;Temp;Humidity;BMP_temperature;BMP_pressure;BME280_temperature;BME280_humidity;BME280_pressure;Samples;Min_cycle;Max_cycle;Signal;HPM_P1;HPM_P2
2023/03/13 00:01:23;;;;;;;;;;;;;;;13.85;100.00;99195.94;7358413;19;20272;-61
2023/03/13 00:03:50;;;;;;;;;;;;;;;13.84;99.97;99192.47;7354484;19;20278;-61
2023/03/13 00:06:17;;;;;;;;;;;;;;;13.85;100.00;99191.47;7357341;19;19948;-62
2023/03/13 00:08:44;;;;;;;;;;;;;;;13.86;100.00;99179.06;7354818;19;20320;-58
2023/03/13 00:11:12;;;;;;;;;;;;;;;13.88;99.98;99184.91;7357080;19;20538;-60
2023/03/13 00:13:40;;;;;;;;;;;;;;;13.87;99.76;99159.50;7354657;19;20093;-59
2023/03/13 00:16:09;;;;;;;;;;;;;;;13.89;100.00;99157.47;7362411;19;19927;-59
2023/03/13 00:18:36;;;;;;;;;;;;;;;13.89;100.00;99152.16;7361864;19;19923;-59
2023/03/13 00:21:05;;;;;;;;;;;;;;;13.85;99.83;99145.69;7364302;19;19957;-61
2023/03/13 00:23:33;;;;;;;;;;;;;;;13.87;99.86;99135.69;7359297;19;19994;-61
2023/03/13 00:26:01;;;;;;;;;;;;;;;13.87;100.00;99135.69;7364554;19;20458;-59
2023/03/13 00:28:29;;;;;;;;;;;;;;;13.86;99.83;99127.00;7361642;19;20296;-58
2023/03/13 00:31:00;;;;;;;;;;;;;;;13.87;100.00;99119.84;7362018;19;19954;-60
2023/03/13 00:33:27;;;;;;;;;;;;;;;13.87;99.91;99118.00;7362820;19;19922;-60
2023/03/13 00:35:57;;;;;;;;;;;;;;;13.91;99.96;99121.88;7363970;19;19922;-60
2023/03/13 00:38:26;;;;;;;;;;;;;;;13.91;99.76;99100.72;7362611;19;20004;-60
2023/03/13 00:40:57;;;;;;;;;;;;;;;13.92;99.69;99115.53;7365190;19;19918;-60
2023/03/13 00:43:25;;;;;;;;;;;;;;;13.95;99.79;99119.59;7363066;19;20045;-59
2023/03/13 00:45:52;;;;;;;;;;;;;;;13.92;99.79;99109.41;7363894;19;20959;-61
2023/03/13 00:48:19;;;;;;;;;;;;;;;13.92;99.80;99106.78;7361583;19;20300;-61
2023/03/13 00:50:46;;;;;;;;;;;;;;;13.89;99.83;99101.94;7363375;19;19914;-60
2023/03/13 00:53:13;;;;;;;;;;;;;;;13.88;100.00;99090.53;7359655;19;20437;-60
2023/03/13 00:55:48;;;;;;;;;;;;;;;13.91;100.00;99119.22;7362726;19;19940;-56
2023/03/13 00:58:16;;;;;;;;;;;;;;;13.93;99.94;99109.22;7361107;19;19923;-59
2023/03/13 01:00:43;;;;;;;;;;;;;;;13.95;99.75;99101.06;7360965;19;19947;-59
2023/03/13 01:03:10;;;;;;;;;;;;;;;13.94;99.36;99105.56;7361778;19;20005;-62
2023/03/13 01:05:37;;;;;;;;;;;;;;;13.91;99.06;99113.94;7363030;19;19929;-61
2023/03/13 01:08:04;;;;;;;;;;;;;;;13.90;98.95;99109.66;7362792;19;19986;-61
2023/03/13 01:10:31;;;;;;;;;;;;;;;13.90;99.08;99087.69;7363568;19;20330;-60
2023/03/13 01:12:58;;;;;;;;;;;;;;;13.89;99.01;99088.72;7362522;19;19974;-61
2023/03/13 01:15:25;;;;;;;;;;;;;;;13.88;99.14;99061.47;7362840;19;19922;-62
2023/03/13 01:17:52;;;;;;;;;;;;;;;13.88;99.01;99079.16;7363024;19;19918;-59
2023/03/13 01:20:19;;;;;;;;;;;;;;;13.86;99.08;99100.53;7362831;19;19926;-62
2023/03/13 01:22:47;;;;;;;;;;;;;;;13.89;99.23;99086.88;7362284;19;19923;-61
2023/03/13 01:25:14;;;;;;;;;;;;;;;13.90;99.44;99091.16;7358639;19;19982;-62
2023/03/13 01:27:41;;;;;;;;;;;;;;;13.92;99.53;99093.56;7362703;19;19922;-61
2023/03/13 01:30:09;;;;;;;;;;;;;;;13.92;99.76;99097.00;7362221;19;19982;-61
2023/03/13 01:32:36;;;;;;;;;;;;;;;13.92;99.77;99101.50;7362297;19;19923;-62
2023/03/13 01:35:03;;;;;;;;;;;;;;;13.92;100.00;99090.91;7359468;19;20272;-61
2023/03/13 01:37:30;;;;;;;;;;;;;;;13.94;100.00;99088.88;7360660;19;19938;-57
2023/03/13 01:39:57;;;;;;;;;;;;;;;13.94;100.00;99081.75;7361966;19;19923;-59
2023/03/13 01:42:24;;;;;;;;;;;;;;;13.92;100.00;99081.16;7364432;19;19923;-60
2023/03/13 01:44:54;;;;;;;;;;;;;;;13.91;100.00;99047.81;7361053;19;19925;-59
2023/03/13 01:47:21;;;;;;;;;;;;;;;13.93;100.00;99061.63;7358634;19;19935;-60
2023/03/13 01:49:50;;;;;;;;;;;;;;;13.94;100.00;99036.81;7358932;19;19978;-60
2023/03/13 01:52:20;;;;;;;;;;;;;;;13.93;100.00;99045.75;7357660;19;20412;-61
2023/03/13 01:54:50;;;;;;;;;;;;;;;13.92;100.00;99052.06;7359145;19;20205;-58
2023/03/13 01:57:20;;;;;;;;;;;;;;;13.93;100.00;99058.97;7362082;19;19926;-62
2023/03/13 01:59:51;;;;;;;;;;;;;;;13.93;99.96;99034.38;7361886;19;19926;-59
2023/03/13 02:02:19;;;;;;;;;;;;;;;13.96;99.69;99028.66;7360061;19;20003;-59
2023/03/13 02:04:48;;;;;;;;;;;;;;;13.97;99.49;99006.44;7360738;19;20510;-57
2023/03/13 02:07:17;;;;;;;;;;;;;;;13.96;99.32;99008.31;7360365;19;20236;-60
2023/03/13 02:09:48;;;;;;;;;;;;;;;13.99;99.44;99021.09;7360799;19;21532;-62
2023/03/13 02:12:18;;;;;;;;;;;;;;;13.99;99.25;99007.88;7360538;19;20446;-56
2023/03/13 02:14:45;;;;;;;;;;;;;;;14.00;99.17;99011.31;7360133;19;19923;-64
2023/03/13 02:17:13;;;;;;;;;;;;;;;13.99;99.37;99013.16;7357056;19;19958;-61
2023/03/13 02:19:43;;;;;;;;;;;;;;;14.00;99.39;99014.78;7362335;19;19931;-60
2023/03/13 02:22:13;;;;;;;;;;;;;;;14.01;99.31;98994.44;7360040;19;19929;-61
2023/03/13 02:24:43;;;;;;;;;;;;;;;14.00;99.35;99008.66;7358378;19;19918;-59
2023/03/13 02:27:11;;;;;;;;;;;;;;;13.99;99.59;99007.88;7360639;19;19925;-59
2023/03/13 02:29:37;;;;;;;;;;;;;;;14.04;100.00;99001.91;7359360;19;19958;-59
2023/03/13 02:32:05;;;;;;;;;;;;;;;14.00;100.00;98987.53;7359786;19;19923;-60
2023/03/13 02:34:34;;;;;;;;;;;;;;;14.00;100.00;98990.97;7359475;19;19926;-59
2023/03/13 02:37:02;;;;;;;;;;;;;;;14.00;100.00;98982.22;7356486;19;20390;-60
2023/03/13 02:39:30;;;;;;;;;;;;;;;14.01;100.00;98989.94;7357787;19;21027;-60
2023/03/13 02:41:59;;;;;;;;;;;;;;;14.03;100.00;98971.19;7359436;19;20615;-61
2023/03/13 02:44:26;;;;;;;;;;;;;;;14.04;100.00;98975.47;7361992;19;19937;-60
2023/03/13 02:46:53;;;;;;;;;;;;;;;14.03;100.00;98968.56;7360541;19;20394;-59
2023/03/13 02:49:23;;;;;;;;;;;;;;;14.04;100.00;98972.81;7357780;19;20690;-62
2023/03/13 02:51:51;;;;;;;;;;;;;;;14.01;100.00;98963.50;7360486;19;20158;-61
2023/03/13 02:54:20;;;;;;;;;;;;;;;14.00;100.00;98961.06;7355536;19;19931;-59
2023/03/13 02:56:50;;;;;;;;;;;;;;;13.94;100.00;98960.13;7359835;19;19923;-59
2023/03/13 02:59:17;;;;;;;;;;;;;;;13.93;100.00;98945.28;7358397;19;20328;-59
2023/03/13 03:01:44;;;;;;;;;;;;;;;13.91;100.00;98947.34;7363225;19;20257;-61
2023/03/13 03:04:11;;;;;;;;;;;;;;;13.91;100.00;98949.19;7360803;19;19919;-59
2023/03/13 03:06:38;;;;;;;;;;;;;;;13.86;100.00;98943.75;7360729;19;20260;-60
2023/03/13 03:09:05;;;;;;;;;;;;;;;13.86;100.00;98939.28;7358425;19;21560;-58
2023/03/13 03:11:32;;;;;;;;;;;;;;;13.87;100.00;98946.16;7355666;19;19945;-60
2023/03/13 03:14:00;;;;;;;;;;;;;;;13.84;100.00;98936.03;7358722;19;20241;-60
2023/03/13 03:16:27;;;;;;;;;;;;;;;13.84;100.00;98936.03;7359546;19;20485;-61
2023/03/13 03:18:54;;;;;;;;;;;;;;;13.84;100.00;98929.94;7355346;19;20356;-61
2023/03/13 03:21:22;;;;;;;;;;;;;;;13.85;100.00;98928.91;7360827;19;20500;-59
2023/03/13 03:23:50;;;;;;;;;;;;;;;13.86;100.00;98933.19;7354240;19;20612;-60
2023/03/13 03:26:17;;;;;;;;;;;;;;;13.85;100.00;98929.72;7361351;19;19949;-59
2023/03/13 03:28:44;;;;;;;;;;;;;;;13.84;100.00;98929.94;7357943;19;20265;-61
2023/03/13 03:31:12;;;;;;;;;;;;;;;13.83;100.00;98921.19;7357074;19;19923;-60
2023/03/13 03:33:39;;;;;;;;;;;;;;;13.82;100.00;98916.94;7357110;19;19919;-60
2023/03/13 03:36:07;;;;;;;;;;;;;;;13.79;100.00;98914.75;7357239;19;19921;-61
2023/03/13 03:38:35;;;;;;;;;;;;;;;13.78;100.00;98920.22;7354779;19;19927;-57
2023/03/13 03:41:02;;;;;;;;;;;;;;;13.82;100.00;98909.00;7357327;19;20256;-60
2023/03/13 03:43:29;;;;;;;;;;;;;;;13.80;100.00;98916.34;7357512;19;19933;-61
2023/03/13 03:45:56;;;;;;;;;;;;;;;13.80;100.00;98907.63;7359077;19;19927;-60
2023/03/13 03:48:23;;;;;;;;;;;;;;;13.78;100.00;98910.47;7361280;19;20430;-64
2023/03/13 03:50:49;;;;;;;;;;;;;;;13.77;100.00;98898.28;7365928;19;19915;-59
2023/03/13 03:53:16;;;;;;;;;;;;;;;13.78;100.00;98894.63;7362572;19;19926;-59
2023/03/13 03:55:44;;;;;;;;;;;;;;;13.76;100.00;98891.41;7362960;19;20324;-62
2023/03/13 03:58:11;;;;;;;;;;;;;;;13.78;100.00;98896.44;7362856;19;19923;-60
2023/03/13 04:00:38;;;;;;;;;;;;;;;13.81;100.00;98885.44;7365547;19;19939;-61
2023/03/13 04:03:05;;;;;;;;;;;;;;;13.85;100.00;98887.41;7362463;19;20269;-60
2023/03/13 04:05:32;;;;;;;;;;;;;;;13.88;100.00;98909.94;7365401;19;19931;-60
2023/03/13 04:07:59;;;;;;;;;;;;;;;13.86;100.00;98891.69;7362171;19;19922;-60
2023/03/13 04:10:26;;;;;;;;;;;;;;;13.85;100.00;98913.03;7363821;19;19923;-57
2023/03/13 04:12:52;;;;;;;;;;;;;;;13.84;100.00;98922.00;7365055;19;19923;-59
2023/03/13 04:15:19;;;;;;;;;;;;;;;13.84;100.00;98925.47;7360508;19;20573;-58
2023/03/13 04:17:46;;;;;;;;;;;;;;;13.86;100.00;98917.31;7364168;19;19918;-59
2023/03/13 04:20:13;;;;;;;;;;;;;;;13.84;100.00;98922.00;7364330;19;19923;-60
2023/03/13 04:22:41;;;;;;;;;;;;;;;13.85;100.00;98913.03;7364398;19;20544;-61
2023/03/13 04:25:08;;;;;;;;;;;;;;;13.85;98.90;98918.34;7360872;19;19933;-61
2023/03/13 04:27:35;;;;;;;;;;;;;;;13.86;98.56;98910.19;7365149;19;19925;-57
2023/03/13 04:30:03;;;;;;;;;;;;;;;13.85;97.55;98905.94;7363437;19;20724;-63
2023/03/13 04:32:30;;;;;;;;;;;;;;;13.87;97.32;98903.84;7364912;19;20316;-60
2023/03/13 04:34:57;;;;;;;;;;;;;;;13.86;96.38;98904.09;7361959;19;20015;-61
2023/03/13 04:37:24;;;;;;;;;;;;;;;13.86;96.11;98889.03;7361542;19;19919;-62
2023/03/13 04:39:51;;;;;;;;;;;;;;;13.89;96.31;98880.66;7362658;19;21479;-59
2023/03/13 04:42:18;;;;;;;;;;;;;;;13.91;95.45;98883.09;7365696;19;19922;-60
2023/03/13 04:44:45;;;;;;;;;;;;;;;13.93;96.06;98868.59;7362967;19;19919;-59
2023/03/13 04:47:12;;;;;;;;;;;;;;;13.91;94.99;98864.56;7362681;19;19923;-59
2023/03/13 04:49:39;;;;;;;;;;;;;;;13.92;95.05;98852.94;7361783;19;19941;-58
2023/03/13 04:52:06;;;;;;;;;;;;;;;13.94;95.08;98856.19;7365196;19;19918;-58
2023/03/13 04:54:33;;;;;;;;;;;;;;;13.97;94.50;98848.59;7363628;19;20604;-60
2023/03/13 04:57:00;;;;;;;;;;;;;;;13.98;94.73;98857.34;7361715;19;20343;-61
2023/03/13 04:59:27;;;;;;;;;;;;;;;13.97;94.59;98843.31;7361841;19;19926;-58
2023/03/13 05:01:54;;;;;;;;;;;;;;;13.97;94.54;98824.00;7361744;19;19930;-63
2023/03/13 05:04:21;;;;;;;;;;;;;;;13.93;94.48;98809.63;7364008;19;19921;-60
2023/03/13 05:06:47;;;;;;;;;;;;;;;13.92;94.60;98823.84;7362997;19;19922;-60
2023/03/13 05:09:14;;;;;;;;;;;;;;;13.92;94.75;98831.78;7360977;19;20590;-60
2023/03/13 05:11:41;;;;;;;;;;;;;;;13.92;94.61;98832.59;7363075;19;21017;-60
2023/03/13 05:14:11;;;;;;;;;;;;;;;13.88;94.54;98849.13;7363004;19;19925;-61
2023/03/13 05:16:38;;;;;;;;;;;;;;;13.91;95.21;98843.44;7362978;19;20263;-59
2023/03/13 05:19:05;;;;;;;;;;;;;;;13.95;95.49;98837.47;7361327;19;19925;-59
2023/03/13 05:21:32;;;;;;;;;;;;;;;13.97;95.71;98826.63;7363910;19;19918;-60
2023/03/13 05:23:59;;;;;;;;;;;;;;;13.96;95.95;98825.84;7359039;19;19922;-60
2023/03/13 05:26:26;;;;;;;;;;;;;;;13.95;96.03;98839.28;7361792;19;19923;-60
2023/03/13 05:28:52;;;;;;;;;;;;;;;13.93;95.68;98836.88;7361202;19;19921;-62
2023/03/13 05:31:19;;;;;;;;;;;;;;;13.87;94.75;98853.63;7359946;19;20011;-61
2023/03/13 05:33:46;;;;;;;;;;;;;;;13.85;93.79;98842.47;7361797;19;20260;-60
2023/03/13 05:36:13;;;;;;;;;;;;;;;13.82;92.76;98827.03;7364642;19;19926;-59
2023/03/13 05:38:40;;;;;;;;;;;;;;;13.83;92.83;98819.91;7359010;19;19926;-59
2023/03/13 05:41:07;;;;;;;;;;;;;;;13.81;92.11;98827.28;7363050;19;19923;-61
2023/03/13 05:43:34;;;;;;;;;;;;;;;13.80;91.63;98823.84;7362889;19;19919;-59
2023/03/13 05:46:01;;;;;;;;;;;;;;;13.81;90.90;98820.16;7359675;19;19930;-59
2023/03/13 05:48:28;;;;;;;;;;;;;;;13.81;90.07;98824.66;7362474;19;19930;-62
2023/03/13 05:50:55;;;;;;;;;;;;;;;13.84;89.92;98816.25;7363917;19;19926;-61
2023/03/13 05:53:22;;;;;;;;;;;;;;;13.85;89.17;98823.16;7361606;19;19919;-59
2023/03/13 05:55:49;;;;;;;;;;;;;;;13.86;87.77;98816.84;7371410;19;19915;-62
2023/03/13 05:58:16;;;;;;;;;;;;;;;13.89;88.05;98824.31;7376389;19;19915;-60
2023/03/13 06:00:43;;;;;;;;;;;;;;;13.92;88.45;98831.78;7360819;19;20587;-60
2023/03/13 06:03:10;;;;;;;;;;;;;;;13.98;88.65;98823.78;7362331;19;19989;-62
2023/03/13 06:05:42;;;;;;;;;;;;;;;13.98;87.03;98829.06;7360278;19;19942;-61
2023/03/13 06:08:09;;;;;;;;;;;;;;;13.97;86.21;98826.63;7359481;19;20307;-59
2023/03/13 06:10:36;;;;;;;;;;;;;;;13.98;85.83;98825.63;7357706;19;19915;-61
2023/03/13 06:13:03;;;;;;;;;;;;;;;14.00;85.85;98819.09;7360620;19;19919;-61
2023/03/13 06:15:48;;;;;;;;;;;;;;;14.03;85.84;98831.03;7359196;19;19931;-58
2023/03/13 06:18:15;;;;;;;;;;;;;;;14.01;84.79;98823.34;7360982;19;20800;-56
2023/03/13 06:20:42;;;;;;;;;;;;;;;13.99;84.61;98825.41;7360386;19;19922;-59
2023/03/13 06:23:09;;;;;;;;;;;;;;;14.04;85.30;98807.03;7360356;19;19922;-59
2023/03/13 06:25:37;;;;;;;;;;;;;;;14.06;85.56;98809.44;7354468;19;19929;-60
2023/03/13 06:28:04;;;;;;;;;;;;;;;14.06;85.26;98823.47;7360158;19;19940;-60
2023/03/13 06:30:31;;;;;;;;;;;;;;;14.09;85.35;98816.91;7359589;19;19923;-60
2023/03/13 06:32:58;;;;;;;;;;;;;;;14.08;85.71;98813.47;7359812;19;19953;-58
2023/03/13 06:35:26;;;;;;;;;;;;;;;14.07;85.95;98822.44;7358255;19;19926;-61
2023/03/13 06:37:53;;;;;;;;;;;;;;;14.05;85.44;98800.72;7361345;19;19986;-57
2023/03/13 06:40:20;;;;;;;;;;;;;;;14.01;84.36;98806.69;7358524;19;19911;-60
2023/03/13 06:42:47;;;;;;;;;;;;;;;14.01;84.18;98810.13;7360009;19;21211;-60
2023/03/13 06:45:14;;;;;;;;;;;;;;;14.04;83.18;98787.69;7358428;19;20011;-61
2023/03/13 06:47:41;;;;;;;;;;;;;;;14.06;83.41;98790.94;7359799;19;19914;-58
2023/03/13 06:50:09;;;;;;;;;;;;;;;14.03;82.65;98783.44;7359999;19;21057;-61
2023/03/13 06:52:36;;;;;;;;;;;;;;;14.06;83.47;98790.94;7361578;19;19919;-60
2023/03/13 06:55:10;;;;;;;;;;;;;;;14.10;83.87;98792.09;7356201;19;19938;-61
2023/03/13 06:57:37;;;;;;;;;;;;;;;14.09;83.42;98767.47;7359999;19;20935;-60
2023/03/13 07:00:06;;;;;;;;;;;;;;;14.08;82.95;98791.50;7359699;19;21102;-57
2023/03/13 07:02:33;;;;;;;;;;;;;;;14.09;83.72;98793.13;7360706;19;19919;-61
2023/03/13 07:05:04;;;;;;;;;;;;;;;14.11;83.67;98788.41;7363039;19;19948;-59
2023/03/13 07:07:32;;;;;;;;;;;;;;;14.08;83.51;98771.16;7361230;19;20018;-59
2023/03/13 07:10:00;;;;;;;;;;;;;;;14.09;83.80;98775.41;7359317;19;20010;-55
2023/03/13 07:12:27;;;;;;;;;;;;;;;14.09;82.94;98769.31;7361173;19;19923;-60
2023/03/13 07:14:55;;;;;;;;;;;;;;;14.10;83.21;98768.28;7358615;19;19923;-59
2023/03/13 07:17:25;;;;;;;;;;;;;;;14.14;83.89;98758.88;7359158;19;20018;-61
2023/03/13 07:19:53;;;;;;;;;;;;;;;14.20;83.45;98765.91;7358994;19;19949;-58
2023/03/13 07:22:20;;;;;;;;;;;;;;;14.25;83.00;98749.34;7359446;19;19927;-60
2023/03/13 07:24:47;;;;;;;;;;;;;;;14.25;82.06;98754.63;7364566;19;19914;-57
2023/03/13 07:27:16;;;;;;;;;;;;;;;14.25;82.29;98749.34;7365706;19;19923;-60
2023/03/13 07:29:43;;;;;;;;;;;;;;;14.24;81.08;98745.88;7363593;19;19929;-58
2023/03/13 07:32:10;;;;;;;;;;;;;;;14.27;81.47;98749.94;7363507;19;19919;-59
2023/03/13 07:34:38;;;;;;;;;;;;;;;14.30;80.63;98741.53;7365021;19;19954;-61
2023/03/13 07:37:05;;;;;;;;;;;;;;;14.30;79.60;98744.16;7362177;19;20255;-58
2023/03/13 07:39:32;;;;;;;;;;;;;;;14.31;79.41;98751.88;7360391;19;19923;-57
2023/03/13 07:41:59;;;;;;;;;;;;;;;14.34;80.20;98751.41;7364725;19;19923;-59
2023/03/13 07:44:26;;;;;;;;;;;;;;;14.38;79.21;98735.91;7364115;19;19971;-60
2023/03/13 07:46:53;;;;;;;;;;;;;;;14.36;79.02;98728.22;7364844;19;20017;-59
2023/03/13 07:49:20;;;;;;;;;;;;;;;14.33;78.28;98731.28;7367215;19;19974;-60
2023/03/13 07:51:49;;;;;;;;;;;;;;;14.38;78.58;98730.63;7367719;19;19939;-58
2023/03/13 07:54:17;;;;;;;;;;;;;;;14.39;78.13;98717.19;7362733;19;20573;-62
2023/03/13 07:56:44;;;;;;;;;;;;;;;14.44;77.92;98737.66;7363487;19;19919;-57
2023/03/13 07:59:11;;;;;;;;;;;;;;;14.46;78.49;98736.41;7367976;19;19973;-59
2023/03/13 08:01:38;;;;;;;;;;;;;;;14.49;78.26;98727.19;7367267;19;19928;-60
2023/03/13 08:04:05;;;;;;;;;;;;;;;14.48;77.99;98721.09;7364144;19;19938;-59
2023/03/13 08:06:35;;;;;;;;;;;;;;;14.48;77.46;98726.38;7364620;19;19931;-58
2023/03/13 08:09:03;;;;;;;;;;;;;;;14.48;77.76;98721.09;7364567;19;19943;-60
2023/03/13 08:11:30;;;;;;;;;;;;;;;14.47;77.91;98723.97;7366027;19;19919;-60
2023/03/13 08:13:59;;;;;;;;;;;;;;;14.46;78.37;98731.09;7363702;19;19940;-58
2023/03/13 08:16:27;;;;;;;;;;;;;;;14.40;77.88;98742.59;7364111;19;19927;-57
2023/03/13 08:18:55;;;;;;;;;;;;;;;14.39;78.52;98740.19;7359456;19;20329;-59
2023/03/13 08:21:24;;;;;;;;;;;;;;;14.38;78.62;98746.50;7364535;19;19919;-59
2023/03/13 08:23:54;;;;;;;;;;;;;;;14.39;79.19;98737.53;7359500;19;19949;-59
2023/03/13 08:26:22;;;;;;;;;;;;;;;14.37;79.28;98724.56;7357757;19;19994;-57
2023/03/13 08:28:52;;;;;;;;;;;;;;;14.36;78.96;98711.50;7358152;19;19931;-59
2023/03/13 08:31:20;;;;;;;;;;;;;;;14.37;79.46;98734.34;7362685;19;19923;-60
2023/03/13 08:33:48;;;;;;;;;;;;;;;14.34;79.45;98742.69;7358304;19;19994;-60
2023/03/13 08:36:18;;;;;;;;;;;;;;;14.31;78.74;98730.72;7363986;19;20263;-59
2023/03/13 08:38:46;;;;;;;;;;;;;;;14.31;78.50;98724.63;7361197;19;19926;-63
2023/03/13 08:41:15;;;;;;;;;;;;;;;14.31;78.42;98738.66;7366951;19;19986;-59
2023/03/13 08:43:43;;;;;;;;;;;;;;;14.30;78.52;98736.22;7364346;19;19926;-63
2023/03/13 08:46:10;;;;;;;;;;;;;;;14.34;79.34;98716.22;7362683;19;20396;-60
2023/03/13 08:48:38;;;;;;;;;;;;;;;14.34;78.46;98729.44;7360823;19;19919;-62
2023/03/13 08:51:06;;;;;;;;;;;;;;;14.32;78.50;98713.00;7360285;19;19931;-61
2023/03/13 08:53:34;;;;;;;;;;;;;;;14.36;78.31;98707.06;7352490;19;20536;-57
2023/03/13 08:56:01;;;;;;;;;;;;;;;14.37;78.30;98719.25;7357682;19;19923;-61
2023/03/13 08:58:29;;;;;;;;;;;;;;;14.37;77.59;98698.09;7362072;19;19919;-60
2023/03/13 09:00:59;;;;;;;;;;;;;;;14.42;78.18;98706.16;7365501;19;19991;-64
2023/03/13 09:03:26;;;;;;;;;;;;;;;14.44;76.90;98708.53;7365090;19;19936;-59
2023/03/13 09:05:53;;;;;;;;;;;;;;;14.50;77.55;98705.78;7364591;19;20332;-60
2023/03/13 09:08:22;;;;;;;;;;;;;;;14.55;78.13;98690.03;7361459;19;19919;-62
2023/03/13 09:10:52;;;;;;;;;;;;;;;14.60;77.67;98712.34;7363246;19;19927;-62
2023/03/13 09:13:19;;;;;;;;;;;;;;;14.65;76.54;98696.56;7358846;19;20340;-59
2023/03/13 09:15:52;;;;;;;;;;;;;;;14.69;76.06;98705.66;7361852;19;20336;-65
2023/03/13 09:18:20;;;;;;;;;;;;;;;14.77;76.89;98698.19;7345873;19;19919;-58
2023/03/13 09:20:50;;;;;;;;;;;;;;;14.91;76.34;98686.28;7359841;19;20658;-63
2023/03/13 09:23:17;;;;;;;;;;;;;;;14.98;74.91;98696.75;7364174;19;19946;-60
2023/03/13 09:25:45;;;;;;;;;;;;;;;15.05;74.49;98692.13;7361722;19;19923;-62
2023/03/13 09:28:12;;;;;;;;;;;;;;;15.13;74.04;98685.66;7359092;19;19919;-59
2023/03/13 09:30:39;;;;;;;;;;;;;;;15.18;73.68;98681.28;7360664;19;20015;-59
2023/03/13 09:33:06;;;;;;;;;;;;;;;15.22;73.68;98679.75;7360150;19;20019;-61
2023/03/13 09:35:33;;;;;;;;;;;;;;;15.26;73.56;98685.38;7358786;19;20482;-61
2023/03/13 09:38:01;;;;;;;;;;;;;;;15.34;73.15;98677.03;7357799;19;20637;-61
2023/03/13 09:40:28;;;;;;;;;;;;;;;15.36;72.65;98677.63;7356297;19;19941;-61
2023/03/13 09:42:57;;;;;;;;;;;;;;;15.45;71.91;98696.59;7359014;19;19960;-59
2023/03/13 09:45:26;;;;;;;;;;;;;;;15.46;72.42;98680.47;7360622;19;20002;-64
2023/03/13 09:47:58;;;;;;;;;;;;;;;15.52;72.73;98686.69;7356563;19;19930;-60
2023/03/13 09:50:28;;;;;;;;;;;;;;;15.56;72.36;98687.81;7362094;19;19926;-64
2023/03/13 09:52:59;;;;;;;;;;;;;;;15.62;71.74;98694.81;7359474;19;20350;-60
2023/03/13 09:55:29;;;;;;;;;;;;;;;15.68;72.13;98696.53;7359044;19;19923;-60
2023/03/13 09:57:59;;;;;;;;;;;;;;;15.64;70.78;98693.56;7360665;19;20601;-59
2023/03/13 10:00:30;;;;;;;;;;;;;;;15.61;71.81;98691.38;7361909;19;20370;-61
2023/03/13 10:02:58;;;;;;;;;;;;;;;15.61;70.61;98693.22;7360764;19;20644;-61
2023/03/13 10:05:26;;;;;;;;;;;;;;;15.55;70.47;98705.56;7360353;19;19923;-62
2023/03/13 10:08:02;;;;;;;;;;;;;;;15.47;70.82;98684.72;7360485;19;19926;-61
2023/03/13 10:10:32;;;;;;;;;;;;;;;15.40;70.96;98708.72;7359225;19;19927;-61
2023/03/13 10:13:09;;;;;;;;;;;;;;;15.35;71.26;98686.59;7363054;19;19919;-59
2023/03/13 10:15:39;;;;;;;;;;;;;;;15.38;71.72;98686.97;7359578;19;19956;-59
2023/03/13 10:18:09;;;;;;;;;;;;;;;15.41;71.44;98683.00;7363344;19;19921;-61
2023/03/13 10:20:38;;;;;;;;;;;;;;;15.42;71.61;98684.63;7362978;19;20608;-63
2023/03/13 10:23:12;;;;;;;;;;;;;;;15.41;70.91;98702.38;7360456;19;19929;-61
2023/03/13 10:25:39;;;;;;;;;;;;;;;15.49;70.83;98689.78;7358940;19;19922;-60
2023/03/13 10:28:10;;;;;;;;;;;;;;;15.47;70.20;98705.94;7358157;19;20404;-62
2023/03/13 10:30:42;;;;;;;;;;;;;;;15.49;69.78;98703.03;7358611;19;20038;-61
2023/03/13 10:33:11;;;;;;;;;;;;;;;15.50;69.12;98712.59;7354997;19;20002;-60
2023/03/13 10:35:40;;;;;;;;;;;;;;;15.48;70.04;98702.25;7360514;19;19918;-61
2023/03/13 10:38:11;;;;;;;;;;;;;;;15.50;69.95;98705.44;7359883;19;19947;-58
2023/03/13 10:40:38;;;;;;;;;;;;;;;15.45;70.14;98713.28;7359554;19;19923;-61
2023/03/13 10:43:13;;;;;;;;;;;;;;;15.44;69.74;98722.28;7357788;19;19919;-60
2023/03/13 10:45:40;;;;;;;;;;;;;;;15.43;70.33;98712.75;7357664;19;19939;-59
2023/03/13 10:48:11;;;;;;;;;;;;;;;15.48;70.91;98704.88;7357018;19;19923;-60
2023/03/13 10:50:41;;;;;;;;;;;;;;;15.49;69.82;98725.03;7358964;19;20015;-59
2023/03/13 10:53:20;;;;;;;;;;;;;;;15.49;69.08;98711.00;7355831;19;19922;-61
2023/03/13 10:55:47;;;;;;;;;;;;;;;15.51;70.06;98719.50;7357679;19;19922;-58
2023/03/13 10:58:18;;;;;;;;;;;;;;;15.49;69.15;98711.00;7354409;19;19932;-60
2023/03/13 11:00:45;;;;;;;;;;;;;;;15.52;71.13;98731.75;7359046;19;20240;-60
2023/03/13 11:03:16;;;;;;;;;;;;;;;15.57;70.01;98740.59;7360479;19;19923;-59
2023/03/13 11:05:54;;;;;;;;;;;;;;;15.62;69.81;98722.16;7359681;19;19922;-59
2023/03/13 11:08:23;;;;;;;;;;;;;;;15.67;69.34;98716.94;7356307;19;19964;-60
2023/03/13 11:10:52;;;;;;;;;;;;;;;15.76;68.92;98712.84;7360428;19;20043;-57
2023/03/13 11:13:22;;;;;;;;;;;;;;;15.82;68.39;98722.50;7358592;19;19982;-61
2023/03/13 11:16:06;;;;;;;;;;;;;;;15.77;67.15;98714.47;7356892;19;20121;-62
2023/03/13 11:18:37;;;;;;;;;;;;;;;15.73;67.22;98728.44;7353149;19;19918;-60
2023/03/13 11:21:04;;;;;;;;;;;;;;;15.79;67.49;98715.03;7358338;19;19927;-59
2023/03/13 11:23:46;;;;;;;;;;;;;;;15.85;67.96;98723.84;7339770;19;19975;-61
2023/03/13 11:26:15;;;;;;;;;;;;;;;15.87;67.97;98708.53;7357683;19;19923;-62
2023/03/13 11:28:49;;;;;;;;;;;;;;;15.88;66.81;98731.34;7358425;19;19953;-60
2023/03/13 11:31:19;;;;;;;;;;;;;;;15.91;66.78;98724.75;7356857;19;20019;-61
2023/03/13 11:33:51;;;;;;;;;;;;;;;15.94;67.06;98722.44;7354256;19;20543;-59
2023/03/13 11:36:27;;;;;;;;;;;;;;;15.91;66.82;98714.16;7359980;19;19964;-59
2023/03/13 11:39:01;;;;;;;;;;;;;;;15.93;66.67;98704.09;7355609;19;19929;-59
2023/03/13 11:41:32;;;;;;;;;;;;;;;15.96;65.87;98703.63;7357534;19;19919;-61
2023/03/13 11:44:03;;;;;;;;;;;;;;;16.00;66.16;98702.13;7357835;19;19914;-61
2023/03/13 11:46:35;;;;;;;;;;;;;;;16.00;66.19;98702.91;7357980;19;19939;-60
2023/03/13 11:49:06;;;;;;;;;;;;;;;16.07;66.21;98700.09;7353790;19;19933;-57
2023/03/13 11:51:37;;;;;;;;;;;;;;;16.12;66.07;98694.88;7358103;19;19925;-61
2023/03/13 11:54:13;;;;;;;;;;;;;;;16.16;65.50;98696.78;7349806;19;20612;-60
2023/03/13 11:56:43;;;;;;;;;;;;;;;16.10;65.66;98691.66;7355229;19;19918;-60
2023/03/13 11:59:13;;;;;;;;;;;;;;;16.03;65.58;98680.41;7351061;19;19918;-61
2023/03/13 12:01:48;;;;;;;;;;;;;;;16.03;66.83;98678.56;7357506;19;19953;-60
2023/03/13 12:04:16;;;;;;;;;;;;;;;16.03;66.22;98677.75;7353740;19;19919;-57
2023/03/13 12:06:51;;;;;;;;;;;;;;;16.04;65.97;98688.13;7357937;19;20126;-60
2023/03/13 12:09:24;;;;;;;;;;;;;;;15.97;66.72;98676.06;7357776;19;20054;-65
2023/03/13 12:12:02;;;;;;;;;;;;;;;15.99;66.03;98674.78;7362339;19;19918;-60
2023/03/13 12:14:32;;;;;;;;;;;;;;;15.97;65.81;98668.09;7363022;19;20021;-59
2023/03/13 12:17:02;;;;;;;;;;;;;;;15.98;66.44;98651.94;7359508;19;19950;-59
2023/03/13 12:19:31;;;;;;;;;;;;;;;16.01;65.74;98654.09;7363729;19;19919;-60
2023/03/13 12:22:06;;;;;;;;;;;;;;;15.99;65.51;98658.88;7364853;19;19936;-61
2023/03/13 12:24:37;;;;;;;;;;;;;;;15.96;66.00;98647.91;7360556;19;20372;-61
2023/03/13 12:27:07;;;;;;;;;;;;;;;15.96;66.02;98638.09;7362131;19;19911;-60
2023/03/13 12:29:41;;;;;;;;;;;;;;;15.99;66.80;98647.44;7362803;19;20472;-61
2023/03/13 12:32:13;;;;;;;;;;;;;;;15.98;66.03;98651.13;7361457;19;19990;-61
2023/03/13 12:34:44;;;;;;;;;;;;;;;15.95;65.59;98660.38;7365760;19;19926;-59
2023/03/13 12:37:19;;;;;;;;;;;;;;;15.93;66.40;98632.50;7361784;19;20281;-63
2023/03/13 12:39:52;;;;;;;;;;;;;;;15.93;66.07;98638.59;7358475;19;20690;-60
2023/03/13 12:42:24;;;;;;;;;;;;;;;15.90;66.08;98644.38;7362363;19;19922;-61
2023/03/13 12:44:58;;;;;;;;;;;;;;;15.86;66.11;98635.28;7360453;19;19934;-59
2023/03/13 12:47:32;;;;;;;;;;;;;;;15.83;66.50;98641.09;7360791;19;19948;-61
2023/03/13 12:50:04;;;;;;;;;;;;;;;15.80;67.66;98644.22;7363291;19;19933;-63
2023/03/13 12:52:35;;;;;;;;;;;;;;;15.80;66.82;98641.56;7363622;19;20038;-59